createdAt,value
2017-12-30T00:00:44.034Z,4.75
2017-12-30T00:03:12.949Z,4.72
2017-12-30T00:05:41.077Z,3.75
2017-12-30T00:08:09.213Z,3.97
2017-12-30T00:10:37.347Z,4.85
2017-12-30T00:13:05.522Z,4.55
2017-12-30T00:15:33.676Z,4.95
2017-12-30T00:18:01.843Z,6.05
2017-12-30T00:20:29.985Z,5.05
2017-12-30T00:22:58.136Z,5.07
2017-12-30T00:25:26.260Z,5.10
2017-12-30T00:27:54.457Z,5.10
2017-12-30T00:30:22.585Z,4.68
2017-12-30T00:32:50.700Z,4.57
2017-12-30T00:35:18.853Z,5.05
2017-12-30T00:37:46.978Z,3.83
2017-12-30T00:40:15.134Z,4.93
2017-12-30T00:42:43.258Z,5.43
2017-12-30T00:45:11.407Z,7.60
2017-12-30T00:47:39.531Z,4.00
2017-12-30T00:50:07.676Z,5.70
2017-12-30T00:52:35.805Z,5.15
2017-12-30T00:55:03.949Z,5.05
2017-12-30T00:57:32.087Z,4.68
2017-12-30T01:00:00.231Z,5.50
2017-12-30T01:02:28.354Z,4.90
2017-12-30T01:04:56.535Z,6.62
2017-12-30T01:07:24.682Z,4.60
2017-12-30T01:09:52.825Z,5.50
2017-12-30T01:12:20.945Z,5.80
2017-12-30T01:14:49.104Z,5.80
2017-12-30T01:17:17.217Z,5.82
2017-12-30T01:19:45.368Z,5.57
2017-12-30T01:22:13.498Z,5.72
2017-12-30T01:24:41.640Z,5.28
2017-12-30T01:27:09.764Z,5.68
2017-12-30T01:29:37.908Z,5.57
2017-12-30T01:32:06.034Z,6.10
2017-12-30T01:34:34.185Z,6.32
2017-12-30T01:37:02.297Z,4.30
2017-12-30T01:39:30.458Z,6.30
2017-12-30T01:41:58.585Z,5.07
2017-12-30T01:44:26.730Z,5.75
2017-12-30T01:46:55.626Z,4.15
2017-12-30T01:49:23.776Z,6.50
2017-12-30T01:51:51.904Z,5.35
2017-12-30T01:54:20.056Z,5.97
2017-12-30T01:56:48.169Z,6.70
2017-12-30T01:59:16.322Z,6.30
2017-12-30T02:01:44.437Z,5.60
2017-12-30T02:04:12.584Z,5.65
2017-12-30T02:06:40.701Z,6.22
2017-12-30T02:09:08.849Z,7.10
2017-12-30T02:11:36.964Z,7.25
2017-12-30T02:14:05.117Z,7.28
2017-12-30T02:16:33.997Z,7.07
2017-12-30T02:19:02.162Z,5.95
2017-12-30T02:21:30.276Z,7.18
2017-12-30T02:23:58.431Z,8.23
2017-12-30T02:26:26.556Z,6.78
2017-12-30T02:28:54.700Z,7.45
2017-12-30T02:31:22.818Z,6.75
2017-12-30T02:33:50.969Z,7.10
2017-12-30T02:36:19.089Z,5.35
2017-12-30T02:38:47.264Z,6.03
2017-12-30T02:41:15.394Z,5.90
2017-12-30T02:43:43.539Z,6.57
2017-12-30T02:46:11.661Z,6.93
2017-12-30T02:48:39.810Z,6.35
2017-12-30T02:51:07.924Z,5.95
2017-12-30T02:53:36.078Z,7.05
2017-12-30T02:56:04.205Z,5.90
2017-12-30T02:58:32.353Z,6.80
2017-12-30T03:01:00.472Z,7.10
2017-12-30T03:03:28.628Z,7.80
2017-12-30T03:05:56.755Z,7.20
2017-12-30T03:08:24.902Z,5.30
2017-12-30T03:10:53.022Z,7.35
2017-12-30T03:13:21.169Z,5.57
2017-12-30T03:15:49.292Z,7.20
2017-12-30T03:18:17.416Z,6.72
2017-12-30T03:20:45.574Z,6.57
2017-12-30T03:23:13.697Z,6.30
2017-12-30T03:25:41.843Z,6.25
2017-12-30T03:28:09.969Z,6.97
2017-12-30T03:30:38.122Z,6.10
2017-12-30T03:33:06.246Z,6.95
2017-12-30T03:35:34.394Z,6.37
2017-12-30T03:38:02.525Z,7.95
2017-12-30T03:40:30.681Z,6.85
2017-12-30T03:42:58.802Z,7.05
2017-12-30T03:45:26.944Z,7.05
2017-12-30T03:47:55.065Z,6.78
2017-12-30T03:50:23.220Z,5.68
2017-12-30T03:52:51.342Z,7.95
2017-12-30T03:55:19.489Z,6.12
2017-12-30T03:57:47.608Z,5.70
2017-12-30T04:00:15.752Z,7.37
2017-12-30T04:02:43.877Z,5.65
2017-12-30T04:05:12.057Z,7.57
2017-12-30T04:07:40.177Z,6.20
2017-12-30T04:10:08.325Z,5.53
2017-12-30T04:12:36.449Z,6.45
2017-12-30T04:15:04.593Z,6.45
2017-12-30T04:17:32.730Z,6.22
2017-12-30T04:20:00.902Z,6.60
2017-12-30T04:22:29.023Z,6.80
2017-12-30T04:24:57.173Z,5.80
2017-12-30T04:27:25.296Z,7.55
2017-12-30T04:29:54.212Z,5.53
2017-12-30T04:32:22.337Z,7.10
2017-12-30T04:34:50.490Z,6.70
2017-12-30T04:37:18.607Z,5.60
2017-12-30T04:39:46.775Z,7.90
2017-12-30T04:42:14.904Z,7.60
2017-12-30T04:44:43.048Z,7.05
2017-12-30T04:47:11.168Z,7.20
2017-12-30T04:49:39.326Z,6.70
2017-12-30T04:52:07.449Z,6.53
2017-12-30T04:54:35.605Z,5.68
2017-12-30T04:57:03.728Z,6.80
2017-12-30T04:59:31.865Z,7.80
2017-12-30T05:01:59.991Z,7.87
2017-12-30T05:04:28.132Z,6.47
2017-12-30T05:06:56.259Z,7.82
2017-12-30T05:09:24.409Z,6.20
2017-12-30T05:11:52.533Z,7.37
2017-12-30T05:16:55.840Z,7.85
2017-12-30T05:19:23.989Z,5.87
2017-12-30T05:21:52.119Z,6.90
2017-12-30T05:24:20.265Z,8.30
2017-12-30T05:26:48.385Z,7.32
2017-12-30T05:29:16.542Z,9.20
2017-12-30T05:31:44.664Z,7.57
2017-12-30T05:34:12.812Z,7.47
2017-12-30T05:36:40.941Z,7.20
2017-12-30T05:39:09.096Z,6.97
2017-12-30T05:41:37.250Z,8.82
2017-12-30T05:44:05.412Z,6.05
2017-12-30T05:46:33.528Z,8.85
2017-12-30T05:49:01.678Z,7.50
2017-12-30T05:51:29.796Z,8.80
2017-12-30T05:53:57.951Z,8.60
2017-12-30T05:56:26.079Z,7.15
2017-12-30T05:58:54.227Z,8.50
2017-12-30T06:01:22.360Z,6.72
2017-12-30T06:03:50.514Z,8.70
2017-12-30T06:06:18.668Z,7.05
2017-12-30T06:08:46.788Z,9.45
2017-12-30T06:11:14.946Z,8.07
2017-12-30T06:13:43.080Z,8.50
2017-12-30T06:16:11.228Z,5.57
2017-12-30T06:18:39.348Z,9.20
2017-12-30T06:21:07.500Z,9.05
2017-12-30T06:23:35.626Z,7.65
2017-12-30T06:26:03.802Z,8.63
2017-12-30T06:28:31.925Z,9.85
2017-12-30T06:31:00.084Z,8.90
2017-12-30T06:33:28.209Z,7.72
2017-12-30T06:35:56.362Z,8.43
2017-12-30T06:38:24.485Z,7.75
2017-12-30T06:40:52.640Z,9.20
2017-12-30T06:43:20.761Z,5.25
2017-12-30T06:45:48.908Z,8.93
2017-12-30T06:48:17.033Z,8.35
2017-12-30T06:50:45.185Z,9.77
2017-12-30T06:53:13.314Z,9.52
2017-12-30T06:55:41.762Z,9.98
2017-12-30T06:58:19.985Z,10.25
2017-12-30T07:00:48.138Z,7.78
2017-12-30T07:03:16.262Z,8.95
2017-12-30T07:05:44.424Z,6.95
2017-12-30T07:08:12.542Z,8.02
2017-12-30T07:10:40.706Z,9.52
2017-12-30T07:13:08.825Z,7.90
2017-12-30T07:15:37.750Z,7.70
2017-12-30T07:18:05.868Z,7.20
2017-12-30T07:20:34.032Z,7.37
2017-12-30T07:23:02.189Z,10.60
2017-12-30T07:25:30.344Z,8.85
2017-12-30T07:27:58.494Z,8.73
2017-12-30T07:30:26.637Z,7.57
2017-12-30T07:32:54.767Z,8.80
2017-12-30T07:35:22.922Z,9.25
2017-12-30T07:37:51.044Z,10.10
2017-12-30T07:40:19.199Z,8.25
2017-12-30T07:42:47.324Z,10.20
2017-12-30T07:45:15.475Z,8.60
2017-12-30T07:47:43.614Z,9.93
2017-12-30T07:50:11.756Z,9.80
2017-12-30T07:52:39.902Z,10.60
2017-12-30T07:55:08.066Z,10.10
2017-12-30T07:57:36.245Z,8.95
2017-12-30T08:00:04.382Z,10.68
2017-12-30T08:02:32.515Z,9.50
2017-12-30T08:05:00.669Z,9.38
2017-12-30T08:07:28.811Z,8.85
2017-12-30T08:09:56.969Z,10.10
2017-12-30T08:12:25.100Z,8.93
2017-12-30T08:14:53.261Z,11.07
2017-12-30T08:17:21.402Z,10.25
2017-12-30T08:19:49.557Z,11.60
2017-12-30T08:22:17.680Z,9.60
2017-12-30T08:24:45.846Z,9.63
2017-12-30T08:27:13.964Z,9.73
2017-12-30T08:29:42.123Z,10.02
2017-12-30T08:32:10.251Z,9.88
2017-12-30T08:34:38.398Z,9.90
2017-12-30T08:37:06.524Z,9.52
2017-12-30T08:39:34.681Z,8.10
2017-12-30T08:42:02.813Z,10.05
2017-12-30T08:44:30.975Z,10.05
2017-12-30T08:46:59.100Z,10.88
2017-12-30T08:49:27.250Z,9.35
2017-12-30T08:51:55.377Z,9.15
2017-12-30T08:54:23.543Z,10.40
2017-12-30T08:56:51.680Z,10.07
2017-12-30T08:59:19.833Z,9.30
2017-12-30T09:01:47.972Z,9.43
2017-12-30T09:04:16.888Z,9.55
2017-12-30T09:06:45.030Z,10.63
2017-12-30T09:09:13.942Z,8.88
2017-12-30T09:11:42.082Z,10.85
2017-12-30T09:14:11.026Z,7.78
2017-12-30T09:16:39.180Z,8.88
2017-12-30T09:19:07.299Z,9.38
2017-12-30T09:21:35.440Z,8.60
2017-12-30T09:24:03.570Z,8.02
2017-12-30T09:26:31.712Z,8.63
2017-12-30T09:28:59.851Z,7.55
2017-12-30T09:31:28.007Z,8.43
2017-12-30T09:33:56.131Z,9.20
2017-12-30T09:36:24.290Z,8.15
2017-12-30T09:38:52.418Z,8.77
2017-12-30T09:41:21.360Z,8.32
2017-12-30T09:43:49.488Z,10.52
2017-12-30T09:46:17.644Z,8.35
2017-12-30T09:48:45.768Z,8.50
2017-12-30T09:51:13.918Z,8.07
2017-12-30T09:53:42.032Z,9.05
2017-12-30T09:56:10.189Z,10.13
2017-12-30T09:58:38.309Z,8.30
2017-12-30T10:01:06.495Z,8.70
2017-12-30T10:03:34.617Z,7.00
2017-12-30T10:06:02.792Z,7.00
2017-12-30T10:08:30.919Z,8.45
2017-12-30T10:10:59.072Z,11.57
2017-12-30T10:13:27.215Z,8.55
2017-12-30T10:15:55.378Z,8.25
2017-12-30T10:18:23.515Z,8.68
2017-12-30T10:20:51.675Z,10.48
2017-12-30T10:23:19.802Z,6.57
2017-12-30T10:25:47.946Z,7.07
2017-12-30T10:28:16.079Z,7.90
2017-12-30T10:30:44.238Z,9.40
2017-12-30T10:33:12.357Z,7.05
2017-12-30T10:35:40.510Z,8.35
2017-12-30T10:38:09.394Z,6.55
2017-12-30T10:40:37.570Z,7.68
2017-12-30T10:43:05.700Z,7.87
2017-12-30T10:45:33.843Z,8.45
2017-12-30T10:48:01.996Z,7.70
2017-12-30T10:50:30.150Z,8.00
2017-12-30T10:52:58.289Z,8.15
2017-12-30T10:55:26.441Z,7.37
2017-12-30T10:57:54.579Z,8.45
2017-12-30T11:00:22.731Z,7.78
2017-12-30T11:02:50.858Z,8.52
2017-12-30T11:05:19.018Z,7.90
2017-12-30T11:07:47.138Z,6.50
2017-12-30T11:10:15.309Z,6.80
2017-12-30T11:12:43.442Z,7.55
2017-12-30T11:15:12.357Z,7.20
2017-12-30T11:17:40.476Z,8.20
2017-12-30T11:20:08.621Z,7.43
2017-12-30T11:22:36.752Z,7.05
2017-12-30T11:25:04.899Z,8.27
2017-12-30T11:27:33.027Z,8.40
2017-12-30T11:30:01.173Z,8.10
2017-12-30T11:32:30.054Z,7.22
2017-12-30T11:34:58.210Z,7.55
2017-12-30T11:37:26.333Z,7.95
2017-12-30T11:39:54.467Z,8.93
2017-12-30T11:42:22.634Z,7.93
2017-12-30T11:44:50.776Z,7.75
2017-12-30T11:47:18.916Z,6.90
2017-12-30T11:49:47.055Z,8.57
2017-12-30T11:52:15.208Z,8.43
2017-12-30T11:54:43.335Z,8.35
2017-12-30T11:57:11.489Z,7.97
2017-12-30T11:59:40.386Z,8.25
2017-12-30T12:02:08.529Z,8.63
2017-12-30T12:04:36.648Z,7.43
2017-12-30T12:07:04.799Z,7.18
2017-12-30T12:09:33.822Z,8.88
2017-12-30T12:12:01.982Z,7.25
2017-12-30T12:14:30.105Z,8.20
2017-12-30T12:16:58.264Z,8.05
2017-12-30T12:19:26.414Z,8.80
2017-12-30T12:21:54.573Z,11.23
2017-12-30T12:24:22.705Z,7.25
2017-12-30T12:26:50.867Z,7.57
2017-12-30T12:29:19.002Z,7.57
2017-12-30T12:31:47.175Z,7.87
2017-12-30T12:34:15.296Z,7.10
2017-12-30T12:36:44.238Z,6.30
2017-12-30T12:39:12.367Z,6.15
2017-12-30T12:41:40.550Z,8.00
2017-12-30T12:44:08.701Z,6.90
2017-12-30T12:46:36.824Z,7.12
2017-12-30T12:49:05.113Z,7.40
2017-12-30T12:51:33.244Z,6.97
2017-12-30T12:54:01.400Z,7.40
2017-12-30T12:56:29.709Z,10.30
2017-12-30T12:58:57.853Z,5.65
2017-12-30T13:01:26.010Z,6.93
2017-12-30T13:03:54.134Z,5.90
2017-12-30T13:06:23.050Z,5.82
2017-12-30T13:08:51.164Z,6.70
2017-12-30T13:11:19.318Z,5.80
2017-12-30T13:13:47.446Z,5.90
2017-12-30T13:16:15.614Z,6.70
2017-12-30T13:18:44.513Z,7.05
2017-12-30T13:21:12.666Z,7.12
2017-12-30T13:23:40.801Z,7.22
2017-12-30T13:26:08.941Z,5.53
2017-12-30T13:28:37.061Z,6.93
2017-12-30T13:31:05.268Z,6.28
2017-12-30T13:33:33.386Z,5.93
2017-12-30T13:36:01.513Z,4.93
2017-12-30T13:38:29.696Z,7.07
2017-12-30T13:40:57.824Z,4.35
2017-12-30T13:43:25.976Z,5.53
2017-12-30T13:45:54.118Z,4.85
2017-12-30T13:48:22.294Z,6.20
2017-12-30T13:50:50.421Z,6.05
2017-12-30T13:53:18.579Z,5.97
2017-12-30T13:55:46.704Z,6.93
2017-12-30T13:58:14.859Z,7.68
2017-12-30T14:00:42.977Z,6.35
2017-12-30T14:03:11.128Z,5.65
2017-12-30T14:05:40.015Z,5.62
2017-12-30T14:08:08.176Z,6.03
2017-12-30T14:10:36.292Z,5.15
2017-12-30T14:13:04.438Z,6.25
2017-12-30T14:15:32.581Z,5.65
2017-12-30T14:18:00.772Z,6.30
2017-12-30T14:20:29.067Z,6.18
2017-12-30T14:22:57.225Z,6.53
2017-12-30T14:25:26.131Z,6.05
2017-12-30T14:27:54.273Z,5.47
2017-12-30T14:30:22.396Z,4.43
2017-12-30T14:32:50.559Z,5.15
2017-12-30T14:35:18.744Z,5.10
2017-12-30T14:37:46.896Z,7.18
2017-12-30T14:40:15.818Z,5.18
2017-12-30T14:42:44.745Z,5.97
2017-12-30T14:45:12.868Z,5.22
2017-12-30T14:47:41.012Z,4.90
2017-12-30T14:50:09.905Z,5.05
2017-12-30T14:52:38.056Z,6.10
2017-12-30T14:55:06.184Z,4.65
2017-12-30T14:57:34.329Z,5.00
2017-12-30T15:00:02.532Z,4.62
2017-12-30T15:02:30.700Z,5.28
2017-12-30T15:04:58.898Z,5.70
2017-12-30T15:07:27.051Z,4.50
2017-12-30T15:09:55.219Z,6.43
2017-12-30T15:12:23.369Z,5.60
2017-12-30T15:14:51.497Z,4.75
2017-12-30T15:17:19.638Z,5.28
2017-12-30T15:19:47.756Z,5.25
2017-12-30T15:22:15.911Z,5.05
2017-12-30T15:24:44.044Z,5.80
2017-12-30T15:27:12.188Z,5.50
2017-12-30T15:29:40.313Z,4.45
2017-12-30T15:32:08.468Z,5.03
2017-12-30T15:34:36.587Z,5.00
2017-12-30T15:37:04.745Z,4.90
2017-12-30T15:39:32.888Z,6.60
2017-12-30T15:42:01.017Z,4.55
2017-12-30T15:44:29.165Z,6.15
2017-12-30T15:46:57.678Z,6.20
2017-12-30T15:49:29.852Z,5.28
2017-12-30T15:52:01.441Z,6.12
2017-12-30T15:54:30.440Z,5.12
2017-12-30T15:56:58.570Z,4.50
2017-12-30T15:59:26.722Z,5.55
2017-12-30T16:01:54.837Z,4.40
2017-12-30T16:04:23.760Z,5.50
2017-12-30T16:06:51.888Z,3.70
2017-12-30T16:09:20.047Z,4.82
2017-12-30T16:11:48.189Z,4.40
2017-12-30T16:14:16.345Z,5.40
2017-12-30T16:16:44.469Z,3.87
2017-12-30T16:19:12.626Z,5.32
2017-12-30T16:21:40.752Z,4.50
2017-12-30T16:24:08.902Z,5.60
2017-12-30T16:26:37.023Z,4.40
2017-12-30T16:29:05.220Z,5.55
2017-12-30T16:31:33.358Z,3.35
2017-12-30T16:34:01.521Z,3.87
2017-12-30T16:36:29.660Z,4.35
2017-12-30T16:38:57.844Z,4.80
2017-12-30T16:41:25.970Z,4.25
2017-12-30T16:43:54.126Z,4.65
2017-12-30T16:46:22.281Z,4.50
2017-12-30T16:48:51.198Z,3.78
2017-12-30T16:51:19.320Z,3.10
2017-12-30T16:53:47.460Z,3.47
2017-12-30T16:56:15.589Z,4.05
2017-12-30T16:58:43.726Z,3.50
2017-12-30T17:01:11.861Z,3.33
2017-12-30T17:03:40.026Z,3.15
2017-12-30T17:06:08.944Z,3.47
2017-12-30T17:08:37.093Z,3.60
2017-12-30T17:11:05.249Z,2.50
2017-12-30T17:13:34.233Z,2.55
2017-12-30T17:16:02.395Z,2.92
2017-12-30T17:18:30.569Z,3.15
2017-12-30T17:20:58.704Z,3.28
2017-12-30T17:23:26.862Z,2.80
2017-12-30T17:25:55.033Z,2.70
2017-12-30T17:28:23.183Z,2.60
2017-12-30T17:30:52.106Z,3.53
2017-12-30T17:33:20.257Z,3.53
2017-12-30T17:35:48.389Z,3.17
2017-12-30T17:38:16.537Z,4.40
2017-12-30T17:40:44.660Z,3.75
2017-12-30T17:43:12.840Z,1.87
2017-12-30T17:45:41.821Z,3.03
2017-12-30T17:48:09.975Z,4.30
2017-12-30T17:50:38.139Z,3.85
2017-12-30T17:53:06.368Z,4.40
2017-12-30T17:55:34.508Z,4.50
2017-12-30T17:58:02.688Z,4.68
2017-12-30T18:00:30.951Z,5.12
2017-12-30T18:02:59.184Z,5.15
2017-12-30T18:05:27.370Z,4.72
2017-12-30T18:07:55.575Z,5.22
2017-12-30T18:10:23.899Z,5.90
2017-12-30T18:12:52.054Z,5.32
2017-12-30T18:15:20.940Z,5.80
2017-12-30T18:17:49.123Z,6.62
2017-12-30T18:20:18.056Z,6.10
2017-12-30T18:22:46.244Z,7.20
2017-12-30T18:25:14.482Z,6.47
2017-12-30T18:27:42.626Z,8.02
2017-12-30T18:30:10.841Z,6.22
2017-12-30T18:32:38.966Z,7.43
2017-12-30T18:35:07.136Z,7.12
2017-12-30T18:37:35.293Z,9.32
2017-12-30T18:40:03.528Z,8.20
2017-12-30T18:42:31.818Z,8.05
2017-12-30T18:45:00.111Z,7.78
2017-12-30T18:47:28.500Z,8.38
2017-12-30T18:49:56.716Z,8.52
2017-12-30T18:52:25.147Z,8.05
2017-12-30T18:54:53.558Z,8.20
2017-12-30T18:57:22.179Z,8.65
2017-12-30T18:59:50.909Z,9.00
2017-12-30T19:02:19.390Z,8.73
2017-12-30T19:04:49.361Z,13.62
2017-12-30T19:07:17.935Z,10.18
2017-12-30T19:09:47.650Z,8.70
2017-12-30T19:12:16.656Z,9.65
2017-12-30T19:14:44.878Z,7.85
2017-12-30T19:17:13.228Z,8.95
2017-12-30T19:19:41.414Z,8.18
2017-12-30T19:22:09.543Z,8.18
2017-12-30T19:24:37.704Z,12.80
2017-12-30T19:27:06.592Z,8.48
2017-12-30T19:29:35.695Z,7.03
2017-12-30T19:32:03.848Z,8.85
2017-12-30T19:34:32.021Z,7.80
2017-12-30T19:37:00.233Z,9.15
2017-12-30T19:39:28.406Z,7.45
2017-12-30T19:41:56.544Z,6.40
2017-12-30T19:44:24.736Z,6.45
2017-12-30T19:46:52.866Z,6.28
2017-12-30T19:49:21.208Z,6.97
2017-12-30T19:51:49.365Z,7.25
2017-12-30T19:54:17.533Z,6.43
2017-12-30T19:56:46.475Z,6.20
2017-12-30T19:59:14.659Z,5.93
2017-12-30T20:01:42.794Z,5.78
2017-12-30T20:04:10.978Z,5.35
2017-12-30T20:06:39.109Z,4.75
2017-12-30T20:09:08.020Z,4.60
2017-12-30T20:11:36.150Z,4.35
2017-12-30T20:14:04.349Z,4.65
2017-12-30T20:16:32.511Z,4.70
2017-12-30T20:19:00.690Z,3.50
2017-12-30T20:21:28.865Z,3.62
2017-12-30T20:23:57.036Z,2.83
2017-12-30T20:26:25.187Z,2.70
2017-12-30T20:28:53.337Z,2.65
2017-12-30T20:31:21.612Z,2.10
2017-12-30T20:33:49.820Z,2.42
2017-12-30T20:36:17.965Z,1.85
2017-12-30T20:38:46.152Z,2.15
2017-12-30T20:41:14.269Z,1.30
2017-12-30T20:43:43.189Z,1.90
2017-12-30T20:46:11.338Z,1.60
2017-12-30T20:48:40.264Z,1.62
2017-12-30T20:51:08.418Z,1.75
2017-12-30T20:53:36.545Z,1.75
2017-12-30T20:56:04.805Z,1.58
2017-12-30T20:58:32.960Z,1.58
2017-12-30T21:01:01.310Z,1.52
2017-12-30T21:03:29.464Z,1.85
2017-12-30T21:05:58.162Z,1.80
2017-12-30T21:08:26.531Z,1.90
2017-12-30T21:10:54.771Z,1.60
2017-12-30T21:13:22.934Z,1.85
2017-12-30T21:15:51.129Z,2.12
2017-12-30T21:18:19.368Z,1.45
2017-12-30T21:20:47.515Z,1.60
2017-12-30T21:23:16.408Z,1.55
2017-12-30T21:25:45.387Z,1.50
2017-12-30T21:28:13.677Z,1.95
2017-12-30T21:30:41.855Z,1.50
2017-12-30T21:33:10.773Z,1.25
2017-12-30T21:35:38.921Z,1.23
2017-12-30T21:38:07.054Z,1.33
2017-12-30T21:40:35.207Z,1.58
2017-12-30T21:43:03.344Z,1.45
2017-12-30T21:45:33.367Z,1.50
2017-12-30T21:48:01.493Z,1.10
2017-12-30T21:50:29.742Z,1.48
2017-12-30T21:52:57.868Z,1.50
2017-12-30T21:55:26.802Z,1.40
2017-12-30T21:57:54.942Z,1.40
2017-12-30T22:00:23.867Z,1.20
2017-12-30T22:02:52.034Z,1.50
2017-12-30T22:05:20.190Z,1.65
2017-12-30T22:07:48.767Z,1.80
2017-12-30T22:10:16.912Z,1.37
2017-12-30T22:12:45.057Z,1.33
2017-12-30T22:15:13.224Z,1.00
2017-12-30T22:17:41.352Z,1.37
2017-12-30T22:20:09.516Z,1.30
2017-12-30T22:22:37.652Z,1.20
2017-12-30T22:25:05.850Z,1.33
2017-12-30T22:27:33.982Z,1.50
2017-12-30T22:30:02.166Z,1.67
2017-12-30T22:32:30.292Z,1.23
2017-12-30T22:34:58.438Z,1.77
2017-12-30T22:37:26.575Z,1.05
2017-12-30T22:39:54.738Z,1.10
2017-12-30T22:42:22.889Z,1.80
2017-12-30T22:44:51.046Z,1.45
2017-12-30T22:47:19.164Z,1.23
2017-12-30T22:49:47.322Z,1.75
2017-12-30T22:52:15.440Z,1.23
2017-12-30T22:54:43.605Z,1.35
2017-12-30T22:57:11.725Z,1.10
2017-12-30T22:59:40.665Z,1.20
2017-12-30T23:02:08.802Z,1.42
2017-12-30T23:04:36.965Z,1.92
2017-12-30T23:07:05.080Z,1.00
2017-12-30T23:09:33.245Z,1.30
2017-12-30T23:12:01.372Z,1.25
2017-12-30T23:14:30.293Z,1.83
2017-12-30T23:16:58.418Z,1.23
2017-12-30T23:19:27.353Z,1.48
2017-12-30T23:21:55.468Z,1.10
2017-12-30T23:24:23.619Z,1.35
2017-12-30T23:26:51.749Z,1.27
2017-12-30T23:29:19.890Z,1.55
2017-12-30T23:31:48.009Z,1.90
2017-12-30T23:34:16.188Z,1.52
2017-12-30T23:36:44.339Z,1.60
2017-12-30T23:39:12.493Z,1.70
2017-12-30T23:41:40.620Z,1.48
2017-12-30T23:44:08.770Z,1.73
2017-12-30T23:46:37.658Z,2.53
2017-12-30T23:49:05.814Z,2.17
2017-12-30T23:51:33.938Z,1.65
2017-12-30T23:54:02.095Z,2.20
2017-12-30T23:56:30.216Z,2.53
2017-12-30T23:58:58.400Z,2.80
